Time;durP1;ratioP1;P1;durP2;ratioP2;P2;SDS_P1;SDS_P2;PMS_P1;PMS_P2;Temp;Humidity;BMP_temperature;BMP_pressure;BME280_temperature;BME280_humidity;BME280_pressure;Samples;Min_cycle;Max_cycle;Signal;HPM_P1;HPM_P2
2021/04/26 00:02:04;;;;;;;14.05;7.05;;;1.90;99.90;;;2.95;78.88;101328.88;4834105;29;20038;-85
2021/04/26 00:04:36;;;;;;;10.35;6.45;;;2.00;99.90;;;2.97;78.69;101334.94;4833390;29;20115;-85
2021/04/26 00:07:02;;;;;;;13.40;6.70;;;1.90;99.90;;;2.82;79.13;101322.13;4832601;29;20119;-85
2021/04/26 00:09:29;;;;;;;12.07;6.90;;;1.90;99.90;;;2.75;78.83;101305.06;4833420;29;20055;-86
2021/04/26 00:11:55;;;;;;;13.38;6.95;;;2.00;99.90;;;2.66;79.01;101318.63;4833879;29;20035;-85
2021/04/26 00:14:22;;;;;;;13.00;7.03;;;1.80;99.90;;;2.56;79.59;101320.69;4834789;29;20034;-85
2021/04/26 00:16:48;;;;;;;10.52;6.47;;;1.60;99.90;;;2.49;79.96;101315.50;4831005;29;20151;-83
2021/04/26 00:19:14;;;;;;;14.25;7.50;;;1.60;99.90;;;2.47;80.23;101317.69;4830826;29;20389;-84
2021/04/26 00:21:40;;;;;;;10.15;7.28;;;1.60;99.90;;;2.46;80.34;101309.72;4830251;29;20049;-84
2021/04/26 00:24:13;;;;;;;14.52;7.25;;;1.50;99.90;;;2.44;80.69;101306.44;4831219;29;20076;-84
2021/04/26 00:26:39;;;;;;;10.25;6.82;;;1.50;99.90;;;2.37;80.58;101320.56;4837369;29;20098;-83
2021/04/26 00:29:04;;;;;;;14.93;7.38;;;1.40;99.90;;;2.36;81.17;101302.38;4829486;29;20071;-83
2021/04/26 00:31:30;;;;;;;14.63;7.07;;;1.40;99.90;;;2.41;81.29;101312.53;4830261;29;20038;-86
2021/04/26 00:33:56;;;;;;;14.82;7.30;;;1.40;99.90;;;2.42;81.36;101305.91;4813155;29;20040;-84
2021/04/26 00:36:22;;;;;;;18.02;7.50;;;1.50;99.90;;;2.39;81.01;101304.53;4830597;29;20065;-82
2021/04/26 00:38:48;;;;;;;12.05;7.47;;;1.60;99.90;;;2.36;81.06;101307.88;4817695;29;20511;-84
2021/04/26 00:41:14;;;;;;;12.45;7.57;;;1.40;99.90;;;2.42;80.69;101308.66;4828553;29;20046;-83
2021/04/26 00:43:40;;;;;;;13.52;7.15;;;1.50;99.90;;;2.49;80.87;101309.97;4827241;29;20030;-83
2021/04/26 00:46:06;;;;;;;15.05;7.25;;;1.50;99.90;;;2.65;81.10;101307.91;4829505;29;20405;-83
2021/04/26 00:48:32;;;;;;;10.38;7.15;;;1.60;99.90;;;2.70;81.43;101307.06;4827931;29;20041;-83
2021/04/26 00:50:58;;;;;;;14.05;7.50;;;1.70;99.90;;;2.66;81.56;101296.56;4828050;29;20038;-84
2021/04/26 00:53:24;;;;;;;16.90;8.20;;;1.70;99.90;;;2.63;81.54;101308.19;4813776;29;20066;-85
2021/04/26 00:55:51;;;;;;;15.35;7.78;;;1.70;99.90;;;2.57;81.88;101298.31;4814706;29;20460;-85
2021/04/26 00:58:17;;;;;;;14.05;7.45;;;1.60;99.90;;;2.56;81.80;101309.66;4820402;29;20046;-83
2021/04/26 01:00:46;;;;;;;14.95;7.72;;;1.60;99.90;;;2.50;82.47;101297.03;4835990;29;20049;-83
2021/04/26 01:03:12;;;;;;;18.50;7.30;;;1.50;99.90;;;2.31;81.97;101299.63;4821018;29;20038;-85
2021/04/26 01:05:38;;;;;;;16.50;7.65;;;1.40;99.90;;;2.25;82.61;101292.50;4835264;29;20052;-83
2021/04/26 01:08:06;;;;;;;14.10;8.02;;;1.30;99.90;;;2.25;82.91;101291.72;4837526;29;20057;-85
2021/04/26 01:10:35;;;;;;;17.35;7.97;;;1.30;99.90;;;2.24;83.26;101288.13;4837399;29;20038;-85
2021/04/26 01:13:39;;;;;;;11.07;7.53;;;1.30;99.90;;;2.19;82.69;101299.19;4838156;29;20071;-85
2021/04/26 01:16:36;;;;;;;11.27;6.95;;;1.20;99.90;;;2.03;83.07;101294.88;4841105;29;20018;-83
2021/04/26 01:19:33;;;;;;;17.63;8.48;;;1.10;99.90;;;2.06;83.35;101295.13;4841962;29;20057;-84
2021/04/26 01:22:05;;;;;;;15.88;7.30;;;1.10;99.90;;;2.09;83.41;101296.50;4876365;24;20070;-84
2021/04/26 01:25:00;;;;;;;18.40;8.13;;;1.10;99.90;;;2.08;83.36;101290.19;4837790;29;20041;-84
2021/04/26 01:28:05;;;;;;;14.50;7.45;;;1.10;99.90;;;2.04;83.41;101288.28;4821109;29;20030;-84
2021/04/26 01:31:02;;;;;;;15.02;7.95;;;1.10;99.90;;;1.97;83.49;101298.78;4832198;29;20045;-84
2021/04/26 01:33:36;;;;;;;14.40;8.27;;;1.00;99.90;;;1.91;83.99;101289.72;4816057;29;20054;-84
2021/04/26 01:36:10;;;;;;;16.50;7.93;;;1.00;99.90;;;1.85;83.88;101295.56;4830669;29;20045;-83
2021/04/26 01:38:43;;;;;;;12.27;7.10;;;0.90;99.90;;;1.69;83.56;101289.31;4829280;29;20045;-82
2021/04/26 01:41:12;;;;;;;14.25;7.72;;;0.80;99.90;;;1.65;84.28;101290.16;4813284;29;20034;-85
2021/04/26 01:43:42;;;;;;;14.65;8.80;;;0.70;99.90;;;1.64;84.67;101286.56;4813518;29;20137;-84
2021/04/26 01:46:12;;;;;;;19.40;8.75;;;0.70;99.90;;;1.70;84.85;101281.88;4813278;29;20048;-84
2021/04/26 01:48:46;;;;;;;16.17;7.78;;;0.80;99.90;;;1.66;84.45;101291.81;4813197;29;20101;-82
2021/04/26 01:51:13;;;;;;;19.52;8.63;;;0.70;99.90;;;1.69;84.82;101280.22;4829574;29;20030;-83
2021/04/26 01:53:43;;;;;;;19.33;9.60;;;0.70;99.90;;;1.64;85.12;101281.06;4830700;29;20034;-85
2021/04/26 01:56:13;;;;;;;14.85;8.82;;;0.70;99.90;;;1.69;84.98;101281.06;4812751;29;20042;-84
2021/04/26 01:58:49;;;;;;;15.88;8.68;;;0.70;99.90;;;1.67;84.64;101290.72;4830600;29;20401;-85
2021/04/26 02:01:22;;;;;;;13.40;7.90;;;0.70;99.90;;;1.47;84.14;101275.94;4829283;29;20038;-84
2021/04/26 02:04:00;;;;;;;11.68;8.00;;;0.60;99.90;;;1.34;84.42;101276.56;4813067;29;20053;-84
2021/04/26 02:06:29;;;;;;;18.17;8.93;;;0.40;99.90;;;1.28;84.93;101282.34;4812751;29;20042;-86
2021/04/26 02:08:56;;;;;;;18.42;8.40;;;0.40;99.90;;;1.24;84.94;101275.75;4830719;29;20065;-83
2021/04/26 02:11:23;;;;;;;16.80;9.07;;;0.30;99.90;;;1.24;85.60;101282.09;4829520;29;20045;-85
2021/04/26 02:13:52;;;;;;;16.40;9.18;;;0.30;99.90;;;1.34;85.84;101281.22;4825813;29;20552;-83
2021/04/26 02:16:19;;;;;;;13.60;8.25;;;0.40;99.90;;;1.35;85.73;101280.94;4810241;29;20042;-83
2021/04/26 02:18:47;;;;;;;16.67;8.20;;;0.40;99.90;;;1.22;85.06;101275.22;4830098;29;20034;-85
2021/04/26 02:21:14;;;;;;;16.17;8.23;;;0.30;99.90;;;1.08;85.60;101268.66;4828292;29;20117;-83
2021/04/26 02:23:40;;;;;;;17.80;8.95;;;0.20;99.90;;;1.01;85.67;101275.28;4812552;29;20042;-84
2021/04/26 02:26:06;;;;;;;17.55;8.75;;;0.20;99.90;;;0.94;85.75;101266.50;4812028;29;20045;-83
2021/04/26 02:28:31;;;;;;;16.58;8.60;;;0.10;99.90;;;0.91;86.21;101274.47;4812994;29;20564;-81
2021/04/26 02:31:00;;;;;;;18.23;9.32;;;0.00;99.90;;;0.93;86.23;101273.09;4812293;29;20042;-83
2021/04/26 02:33:42;;;;;;;13.85;8.48;;;0.10;99.90;;;0.86;86.38;101277.25;4812717;29;20075;-83
2021/04/26 02:36:19;;;;;;;14.93;8.88;;;0.00;99.90;;;0.82;86.56;101262.41;4829545;29;20069;-83
2021/04/26 02:38:53;;;;;;;17.13;9.65;;;0.00;99.90;;;0.87;86.70;101265.13;4829848;29;20038;-86
2021/04/26 02:41:39;;;;;;;23.63;9.48;;;0.00;99.90;;;0.85;86.68;101265.44;4813788;29;20053;-84
2021/04/26 02:44:18;;;;;;;17.88;9.20;;;0.00;99.90;;;0.82;86.98;101265.16;4830166;29;20117;-84
2021/04/26 02:46:47;;;;;;;21.98;9.20;;;-0.10;99.90;;;0.75;86.88;101254.44;4812364;29;20076;-81
2021/04/26 02:49:15;;;;;;;14.25;7.78;;;-0.10;99.90;;;0.68;86.66;101251.16;4830485;29;20034;-85
2021/04/26 02:51:42;;;;;;;20.92;9.82;;;-0.20;99.90;;;0.65;87.29;101248.97;4829845;29;20036;-83
2021/04/26 02:54:10;;;;;;;21.10;9.70;;;-0.20;99.90;;;0.68;87.18;101244.81;4830842;29;20063;-82
2021/04/26 02:56:41;;;;;;;16.65;9.32;;;-0.20;99.90;;;0.72;87.29;101241.25;4811641;29;20448;-83
2021/04/26 02:59:09;;;;;;;19.33;9.15;;;-0.20;99.90;;;0.68;86.90;101236.56;4826197;29;20039;-83
2021/04/26 03:01:37;;;;;;;19.13;9.38;;;-0.20;99.90;;;0.64;87.36;101230.00;4827189;29;20464;-83
2021/04/26 03:04:05;;;;;;;19.58;9.95;;;-0.30;99.90;;;0.58;87.46;101225.63;4827145;29;20463;-83
2021/04/26 03:06:34;;;;;;;22.00;9.48;;;-0.30;99.90;;;0.58;87.61;101226.44;4827874;29;20083;-81
2021/04/26 03:09:01;;;;;;;20.63;10.02;;;-0.30;99.90;;;0.61;87.83;101225.06;4834012;29;20034;-81
2021/04/26 03:11:28;;;;;;;17.08;8.77;;;-0.30;99.90;;;0.67;88.05;101222.03;4826686;29;20046;-82
2021/04/26 03:13:54;;;;;;;18.98;9.73;;;-0.20;99.90;;;0.69;87.84;101219.00;4808986;29;20031;-84
2021/04/26 03:16:21;;;;;;;21.77;10.15;;;-0.20;99.90;;;0.64;87.93;101206.09;4824992;29;20609;-82
2021/04/26 03:18:48;;;;;;;17.88;9.57;;;-0.20;99.90;;;0.62;87.64;101218.44;4825922;29;20361;-82
2021/04/26 03:21:15;;;;;;;16.85;9.27;;;-0.30;99.90;;;0.61;87.89;101217.63;4825406;29;20038;-82
2021/04/26 03:23:43;;;;;;;14.85;9.25;;;-0.30;99.90;;;0.66;88.11;101211.31;4825309;29;20041;-82
2021/04/26 03:26:10;;;;;;;14.05;8.10;;;-0.30;99.90;;;0.65;87.89;101212.41;4825790;29;20034;-84
2021/04/26 03:28:42;;;;;;;19.95;9.57;;;-0.30;99.90;;;0.65;88.16;101207.72;4809259;29;20035;-83
2021/04/26 03:31:11;;;;;;;17.15;10.15;;;-0.30;99.90;;;0.74;88.39;101211.53;4824002;29;20034;-81
2021/04/26 03:33:40;;;;;;;17.85;9.18;;;-0.20;99.90;;;0.74;87.95;101208.78;4825794;29;20038;-82
2021/04/26 03:36:08;;;;;;;20.23;9.15;;;-0.20;99.90;;;0.70;88.09;101210.47;4824243;29;20039;-83
2021/04/26 03:38:38;;;;;;;18.33;9.77;;;-0.20;99.90;;;0.62;88.11;101210.19;4808937;29;20041;-81
2021/04/26 03:41:06;;;;;;;17.38;9.30;;;-0.20;99.90;;;0.60;88.59;101205.00;4808504;29;20399;-82
2021/04/26 03:43:32;;;;;;;19.73;9.63;;;-0.30;99.90;;;0.62;88.42;101197.28;4825674;29;20058;-83
2021/04/26 03:45:59;;;;;;;16.00;8.85;;;-0.20;99.90;;;0.63;88.76;101203.63;4809020;29;20038;-84
2021/04/26 03:48:25;;;;;;;18.35;9.48;;;-0.20;99.90;;;0.59;88.63;101194.28;4826221;29;20113;-84
2021/04/26 03:50:52;;;;;;;18.00;9.10;;;-0.30;99.90;;;0.60;88.80;101204.16;4825769;29;20030;-84
2021/04/26 03:53:18;;;;;;;23.20;9.13;;;-0.30;99.90;;;0.67;88.88;101199.22;4812596;29;20203;-85
2021/04/26 03:55:44;;;;;;;15.00;9.05;;;-0.20;99.90;;;0.68;88.88;101198.91;4832930;29;20026;-80
2021/04/26 03:58:09;;;;;;;17.90;9.45;;;-0.20;99.90;;;0.69;88.96;101192.31;4839951;29;20030;-82
2021/04/26 04:00:36;;;;;;;15.75;9.02;;;-0.20;99.90;;;0.71;88.88;101197.53;4825445;29;20114;-84
2021/04/26 04:03:10;;;;;;;14.63;8.55;;;-0.20;99.90;;;0.72;88.65;101194.50;4823899;29;20088;-81
2021/04/26 04:05:41;;;;;;;15.35;9.00;;;-0.20;99.90;;;0.72;88.63;101201.94;4811926;29;20035;-83
2021/04/26 04:08:08;;;;;;;20.13;9.63;;;-0.20;99.90;;;0.73;88.77;101200.84;4811609;29;20125;-83
2021/04/26 04:10:34;;;;;;;17.08;8.55;;;-0.20;99.90;;;0.72;88.37;101196.44;4811389;29;20027;-82
2021/04/26 04:13:01;;;;;;;17.92;8.43;;;-0.20;99.90;;;0.69;88.25;101195.06;4828621;29;20030;-83
2021/04/26 04:15:27;;;;;;;12.90;7.93;;;-0.20;99.90;;;0.62;87.85;101199.22;4812557;29;20038;-83
2021/04/26 04:17:53;;;;;;;18.88;9.05;;;-0.30;99.90;;;0.55;87.94;101191.25;4811743;29;20034;-83
2021/04/26 04:20:19;;;;;;;15.63;8.10;;;-0.30;99.90;;;0.50;88.07;101194.03;4812744;29;20053;-82
2021/04/26 04:22:45;;;;;;;17.45;8.02;;;-0.40;99.90;;;0.56;88.20;101200.31;4828408;29;20038;-82
2021/04/26 04:25:13;;;;;;;22.15;8.85;;;-0.40;99.90;;;0.60;87.61;101198.69;4828577;29;20034;-82
2021/04/26 04:27:39;;;;;;;16.75;8.65;;;-0.40;99.90;;;0.56;87.57;101195.66;4814386;29;20045;-82
2021/04/26 04:30:10;;;;;;;17.77;8.38;;;-0.40;99.90;;;0.53;87.38;101202.53;4834935;29;20034;-79
2021/04/26 04:32:36;;;;;;;14.27;8.50;;;-0.40;99.90;;;0.52;87.50;101203.63;4828562;29;20022;-81
2021/04/26 04:35:04;;;;;;;14.93;9.18;;;-0.40;99.90;;;0.50;87.48;101205.84;4821777;29;20181;-84
2021/04/26 04:37:30;;;;;;;17.55;8.95;;;-0.40;99.90;;;0.52;87.73;101205.56;4832258;29;20083;-81
2021/04/26 04:39:55;;;;;;;16.33;8.00;;;-0.40;99.90;;;0.54;87.67;101211.63;4815379;29;20057;-84
2021/04/26 04:42:21;;;;;;;21.90;10.18;;;-0.40;99.90;;;0.56;87.86;101206.66;4816194;29;20049;-82
2021/04/26 04:44:47;;;;;;;29.85;10.02;;;-0.40;99.90;;;0.65;87.95;101209.66;4816001;29;20053;-82
2021/04/26 04:47:13;;;;;;;27.60;10.15;;;-0.30;99.90;;;0.74;87.58;101206.03;4815702;29;20031;-84
2021/04/26 04:49:39;;;;;;;17.00;8.40;;;-0.30;99.90;;;0.77;87.60;101199.19;4815992;29;20030;-83
2021/04/26 04:52:05;;;;;;;17.15;8.50;;;-0.20;99.90;;;0.74;87.65;101202.50;4816605;29;20066;-84
2021/04/26 04:54:32;;;;;;;20.80;9.07;;;-0.20;99.90;;;0.72;87.48;101210.19;4814888;29;20034;-82
2021/04/26 04:56:58;;;;;;;20.80;9.15;;;-0.20;99.90;;;0.73;87.48;101198.09;4831998;29;20042;-82
2021/04/26 04:59:24;;;;;;;25.00;10.07;;;-0.20;99.90;;;0.70;87.25;101206.91;4815881;29;20045;-82
2021/04/26 05:01:51;;;;;;;16.60;8.95;;;-0.20;99.90;;;0.72;87.30;101202.75;4813672;29;20129;-84
2021/04/26 05:04:17;;;;;;;18.40;10.25;;;-0.20;99.90;;;0.79;87.71;101202.47;4813242;29;20038;-83
2021/04/26 05:06:43;;;;;;;17.50;9.27;;;-0.10;99.90;;;0.91;87.49;101202.97;4813448;29;20062;-84
2021/04/26 05:09:09;;;;;;;21.25;9.52;;;0.00;99.90;;;1.01;87.62;101201.00;4808731;29;20496;-82
2021/04/26 05:11:36;;;;;;;24.88;9.35;;;0.10;99.90;;;1.17;87.66;101201.75;4810692;29;20030;-84
2021/04/26 05:14:02;;;;;;;18.15;9.80;;;0.20;99.90;;;1.35;87.13;101200.31;4811470;29;20031;-83
2021/04/26 05:16:32;;;;;;;16.90;9.65;;;0.30;99.90;;;1.52;87.17;101193.31;4810466;29;20422;-81
2021/04/26 05:19:00;;;;;;;15.25;9.80;;;0.50;99.90;;;1.71;86.90;101195.38;4811491;29;20043;-83
2021/04/26 05:21:27;;;;;;;12.60;8.75;;;0.60;99.90;;;1.91;86.35;101196.06;4809484;29;20034;-84
2021/04/26 05:23:56;;;;;;;19.25;9.25;;;0.80;99.90;;;2.11;86.23;101200.59;4811008;29;20031;-84
2021/04/26 05:26:27;;;;;;;16.77;9.63;;;0.90;99.90;;;2.34;86.15;101194.34;4811763;29;20110;-85
2021/04/26 05:28:53;;;;;;;15.40;8.15;;;1.10;99.90;;;2.52;86.41;101193.59;4811937;29;20034;-84
2021/04/26 05:31:20;;;;;;;14.00;8.55;;;1.30;99.90;;;2.78;86.34;101185.03;4813757;29;20372;-83
2021/04/26 05:33:47;;;;;;;18.30;9.25;;;1.50;99.90;;;3.05;86.40;101193.56;4795624;29;20061;-83
2021/04/26 05:36:12;;;;;;;19.63;8.20;;;1.70;99.90;;;3.36;85.36;101193.97;4806498;29;20045;-81
2021/04/26 05:38:38;;;;;;;17.27;7.88;;;1.90;99.90;;;3.68;84.79;101200.41;4806266;29;20269;-81
2021/04/26 05:41:04;;;;;;;18.42;9.15;;;2.10;99.90;;;4.00;83.36;101196.03;4806359;29;20376;-82
2021/04/26 05:43:30;;;;;;;14.60;9.32;;;2.40;99.90;;;4.31;82.11;101196.34;4806806;29;20115;-84
2021/04/26 05:45:56;;;;;;;19.10;7.63;;;2.60;99.90;;;4.59;80.23;101198.06;4806362;29;20125;-84
2021/04/26 05:48:22;;;;;;;15.75;7.85;;;2.90;99.90;;;4.88;79.25;101200.56;4808335;29;20062;-83
2021/04/26 05:50:48;;;;;;;16.75;8.15;;;3.20;99.90;;;5.21;77.79;101197.34;4805811;29;20039;-82
2021/04/26 05:53:14;;;;;;;14.75;8.45;;;3.40;99.90;;;5.54;76.34;101194.44;4808730;29;20041;-84
2021/04/26 05:55:40;;;;;;;14.38;8.07;;;3.70;99.90;;;5.85;74.00;101203.69;4809762;29;20030;-87
2021/04/26 05:58:05;;;;;;;18.58;8.82;;;4.00;99.90;;;6.20;72.29;101188.16;4809687;29;20039;-86
2021/04/26 06:00:31;;;;;;;17.40;7.53;;;4.40;99.90;;;6.35;70.62;101191.38;4807721;29;20030;-83
2021/04/26 06:02:59;;;;;;;15.25;8.98;;;4.50;99.90;;;6.64;69.69;101185.34;4806476;29;20046;-83
2021/04/26 06:05:24;;;;;;;14.50;7.38;;;4.80;99.90;;;6.92;68.49;101191.50;4807042;29;20524;-84
2021/04/26 06:07:50;;;;;;;12.52;7.63;;;5.10;99.90;;;7.19;67.04;101182.94;4805941;29;20171;-84
2021/04/26 06:10:16;;;;;;;17.13;8.40;;;5.30;99.90;;;7.41;66.03;101185.63;4811626;29;20026;-84
2021/04/26 06:12:42;;;;;;;12.15;7.18;;;5.60;99.90;;;7.59;64.83;101180.06;4818482;29;20038;-85
2021/04/26 06:15:09;;;;;;;15.60;7.70;;;5.80;99.90;;;7.80;63.87;101187.44;4815422;29;20026;-85
2021/04/26 06:17:34;;;;;;;15.30;8.95;;;6.00;99.90;;;8.04;62.59;101183.34;4827676;29;20042;-83
2021/04/26 06:20:00;;;;;;;15.02;7.72;;;6.20;99.90;;;8.22;61.77;101177.44;4811264;29;20042;-85
2021/04/26 06:22:26;;;;;;;16.58;7.32;;;6.40;99.90;;;8.32;60.36;101191.06;4827873;29;20040;-87
2021/04/26 06:24:52;;;;;;;16.70;7.47;;;6.60;99.90;;;8.24;59.91;101186.28;4810500;29;20041;-85
2021/04/26 06:27:19;;;;;;;15.63;7.28;;;6.60;99.90;;;8.40;60.13;101183.84;4810132;29;20038;-83
2021/04/26 06:29:45;;;;;;;11.60;7.45;;;6.70;99.90;;;8.42;58.29;101176.78;4826744;29;20480;-83
2021/04/26 06:32:11;;;;;;;12.35;6.63;;;6.80;99.90;;;8.64;58.96;101180.50;4812246;29;20113;-82
2021/04/26 06:34:37;;;;;;;17.00;7.90;;;7.00;99.90;;;9.04;58.05;101186.56;4806633;29;20035;-85
2021/04/26 06:37:03;;;;;;;10.73;6.63;;;7.30;99.90;;;9.38;57.36;101184.41;4827197;29;20038;-82
2021/04/26 06:39:28;;;;;;;16.60;7.70;;;7.50;99.90;;;9.73;56.29;101198.94;4829330;29;20407;-81
2021/04/26 06:41:57;;;;;;;16.35;8.40;;;7.80;99.90;;;10.07;55.18;101195.09;4830867;29;20058;-83
2021/04/26 06:44:23;;;;;;;14.15;7.30;;;8.20;99.90;;;10.33;54.55;101189.28;4814052;29;20039;-83
2021/04/26 06:46:50;;;;;;;16.85;7.47;;;8.30;99.90;;;10.53;53.22;101186.44;4829595;29;20039;-81
2021/04/26 06:49:19;;;;;;;14.90;7.57;;;8.60;99.90;;;10.70;50.89;101187.41;4829943;29;20038;-84
2021/04/26 06:51:47;;;;;;;21.55;7.07;;;8.90;99.90;;;10.70;50.91;101177.06;4813014;29;20121;-83
2021/04/26 06:54:14;;;;;;;18.23;7.25;;;9.00;99.90;;;10.79;50.77;101174.19;4813869;29;20034;-82
2021/04/26 06:56:40;;;;;;;22.05;7.45;;;9.00;99.90;;;11.01;49.00;101160.53;4814014;29;20547;-83
2021/04/26 06:59:06;;;;;;;18.92;7.45;;;9.20;98.70;;;11.22;48.48;101174.44;4827389;29;20045;-82
2021/04/26 07:01:32;;;;;;;18.08;6.95;;;9.50;96.70;;;11.50;47.45;101166.94;4812987;29;20398;-81
2021/04/26 07:03:58;;;;;;;13.95;6.90;;;9.70;93.70;;;11.77;46.55;101170.19;4830734;29;20098;-83
2021/04/26 07:06:24;;;;;;;16.08;7.10;;;9.90;92.50;;;12.01;46.08;101162.53;4813207;29;20125;-82
2021/04/26 07:08:50;;;;;;;19.08;6.55;;;10.10;90.80;;;12.34;45.23;101178.25;4809008;29;20035;-83
2021/04/26 07:11:16;;;;;;;17.50;7.07;;;10.40;89.30;;;12.66;43.98;101161.16;4807952;29;20039;-84
2021/04/26 07:13:42;;;;;;;19.15;6.88;;;10.70;86.30;;;13.08;43.13;101169.88;4808095;29;20129;-83
2021/04/26 07:16:08;;;;;;;17.70;6.22;;;11.00;83.10;;;13.36;42.32;101158.53;4807347;29;20035;-83
2021/04/26 07:18:33;;;;;;;15.30;5.80;;;11.30;80.60;;;13.67;41.83;101155.69;4810382;29;20035;-84
2021/04/26 07:21:02;;;;;;;14.82;6.22;;;11.50;78.30;;;13.74;40.84;101152.22;4835057;24;20055;-79
2021/04/26 07:23:30;;;;;;;11.80;5.90;;;11.80;75.50;;;13.87;40.54;101150.88;4791220;29;20034;-79
2021/04/26 07:25:57;;;;;;;9.80;5.03;;;12.00;73.40;;;14.60;40.47;101148.00;4792328;29;20064;-80
2021/04/26 07:28:22;;;;;;;10.13;4.85;;;12.40;74.10;;;14.86;38.71;101141.63;4791534;29;20042;-82
2021/04/26 07:30:48;;;;;;;9.07;4.18;;;12.70;70.20;;;14.98;37.56;101146.22;4807925;29;21976;-82
2021/04/26 07:33:14;;;;;;;10.07;4.38;;;12.80;66.30;;;15.04;35.96;101133.47;4808790;29;20038;-80
2021/04/26 07:35:40;;;;;;;7.22;3.15;;;12.90;63.20;;;15.23;35.20;101139.00;4808936;29;20042;-82
2021/04/26 07:38:06;;;;;;;8.27;3.20;;;13.10;60.60;;;15.42;33.50;101150.16;4800161;29;20038;-80
2021/04/26 07:40:32;;;;;;;5.47;2.50;;;13.40;58.90;;;14.80;32.74;101148.75;4795502;29;20035;-81
2021/04/26 07:42:58;;;;;;;7.78;2.88;;;13.20;55.90;;;15.19;33.89;101138.94;4795730;29;20049;-82
2021/04/26 07:45:46;;;;;;;7.47;1.98;;;13.30;57.40;;;15.08;32.35;101137.97;4811471;29;20065;-82
2021/04/26 07:48:17;;;;;;;7.25;2.50;;;13.20;54.40;;;15.80;32.63;101132.22;4810290;29;20510;-79
2021/04/26 07:50:44;;;;;;;5.18;2.65;;;13.60;55.60;;;15.49;31.17;101129.78;4796103;29;20045;-79
2021/04/26 07:53:13;;;;;;;5.63;2.60;;;13.60;52.80;;;15.77;32.11;101122.56;4811779;29;20377;-82
2021/04/26 07:55:54;;;;;;;5.80;2.92;;;13.70;54.70;;;16.31;32.15;101132.50;4795225;29;20071;-80
2021/04/26 07:58:28;;;;;;;4.38;2.25;;;14.10;55.00;;;16.18;30.86;101134.72;4795189;29;20514;-81
2021/04/26 08:00:57;;;;;;;7.80;2.10;;;14.40;52.60;;;16.46;30.93;101123.00;4795275;29;20041;-80
2021/04/26 08:03:23;;;;;;;4.47;2.50;;;14.40;52.60;;;17.08;29.42;101128.84;4809841;29;20031;-80
2021/04/26 08:05:51;;;;;;;4.45;2.50;;;14.60;51.20;;;16.07;30.88;101128.16;4811172;29;20023;-81
2021/04/26 08:08:19;;;;;;;5.57;2.50;;;14.50;51.20;;;16.26;29.85;101125.19;4810348;29;20041;-78
2021/04/26 08:10:46;;;;;;;7.32;2.13;;;14.60;50.30;;;16.98;29.37;101127.56;4810549;29;20039;-80
2021/04/26 08:13:12;;;;;;;5.78;2.58;;;14.80;50.30;;;16.87;28.91;101132.28;4810806;29;20491;-81
2021/04/26 08:15:39;;;;;;;5.13;2.17;;;15.10;49.10;;;16.81;29.04;101131.00;4793805;29;20047;-81
2021/04/26 08:18:05;;;;;;;5.40;2.60;;;15.10;48.90;;;16.93;28.20;101121.44;4793458;29;20404;-81
2021/04/26 08:20:38;;;;;;;5.35;1.98;;;15.20;47.70;;;16.42;28.61;101118.50;4794300;29;20487;-81
2021/04/26 08:23:16;;;;;;;6.88;2.78;;;14.90;47.60;;;16.98;27.60;101119.09;4811313;29;20031;-80
2021/04/26 08:25:44;;;;;;;4.15;1.67;;;15.20;47.20;;;17.20;25.63;101115.22;4811908;29;20094;-81
2021/04/26 08:28:11;;;;;;;5.20;2.03;;;15.10;44.60;;;16.96;26.89;101115.81;4795705;29;20054;-81
2021/04/26 08:30:39;;;;;;;3.63;2.08;;;14.90;46.00;;;17.38;26.23;101106.88;4795793;29;20521;-80
2021/04/26 08:33:10;;;;;;;4.22;1.85;;;15.20;45.60;;;17.49;26.20;101104.94;4795699;29;20114;-80
2021/04/26 08:35:46;;;;;;;5.25;2.33;;;15.40;45.40;;;17.31;26.94;101096.34;4796559;29;20466;-82
2021/04/26 08:38:12;;;;;;;8.55;2.47;;;15.40;45.70;;;17.31;26.03;101104.81;4795999;29;20439;-79
2021/04/26 08:40:41;;;;;;;2.78;1.75;;;15.40;44.70;;;17.44;26.02;101112.94;4810948;29;20266;-82
2021/04/26 08:43:08;;;;;;;4.72;2.10;;;15.30;44.60;;;17.32;26.30;101102.81;4794498;29;20099;-79
2021/04/26 08:45:35;;;;;;;6.93;1.90;;;15.50;44.80;;;17.46;26.06;101102.09;4794669;29;20058;-80
2021/04/26 08:48:08;;;;;;;3.50;1.80;;;15.60;44.90;;;17.87;26.53;101112.03;4811099;29;20054;-78
2021/04/26 08:50:38;;;;;;;2.28;1.75;;;15.80;45.10;;;18.20;24.05;101094.81;4808242;29;20094;-79
2021/04/26 08:53:07;;;;;;;3.05;1.45;;;16.00;42.70;;;18.33;24.72;101107.34;4793726;29;20034;-80
2021/04/26 08:55:38;;;;;;;3.63;1.90;;;16.00;43.30;;;18.07;24.45;101098.38;4795253;29;20038;-80
2021/04/26 08:58:09;;;;;;;2.75;1.63;;;16.00;42.10;;;18.60;24.21;101092.88;4811330;29;20489;-81
2021/04/26 09:03:37;;;;;;;;;;;16.40;41.20;;;17.78;24.13;101092.63;4810968;29;20083;-80
2021/04/26 09:06:12;;;;;;;3.90;1.77;;;16.30;40.80;;;17.87;25.12;101095.88;4794348;29;19913;-79
2021/04/26 09:08:50;;;;;;;3.60;1.75;;;16.30;42.00;;;18.24;25.83;101086.31;4796387;29;20113;-81
2021/04/26 09:11:26;;;;;;;2.85;1.77;;;16.40;43.50;;;18.93;25.13;101084.03;4794290;29;20370;-81
2021/04/26 09:13:52;;;;;;;3.45;1.80;;;16.50;43.10;;;18.80;24.57;101082.81;4799787;29;20034;-80
2021/04/26 09:16:36;;;;;;;6.95;1.85;;;16.60;42.40;;;18.68;25.09;101089.69;4817072;29;20099;-78
2021/04/26 09:19:05;;;;;;;2.95;1.98;;;16.70;41.50;;;18.30;23.77;101087.56;4809605;29;20359;-79
2021/04/26 09:21:45;;;;;;;8.63;2.33;;;16.70;40.30;;;17.72;24.22;101090.56;4791396;29;20043;-79
2021/04/26 09:24:29;;;;;;;4.57;2.33;;;16.40;40.30;;;18.47;24.00;101078.28;4809237;29;20027;-82
2021/04/26 09:27:01;;;;;;;3.90;1.90;;;16.30;40.90;;;18.14;24.17;101082.25;4793710;29;20037;-80
2021/04/26 09:29:32;;;;;;;6.60;1.98;;;16.30;40.90;;;19.11;23.27;101078.34;4792973;29;20027;-79
2021/04/26 09:32:13;;;;;;;3.90;1.98;;;16.60;40.80;;;18.59;22.81;101077.13;4809554;29;20042;-79
2021/04/26 09:34:55;;;;;;;3.92;2.13;;;16.60;39.20;;;17.61;24.99;101079.22;4793128;29;20060;-82
2021/04/26 09:37:27;;;;;;;5.00;2.33;;;16.40;40.50;;;17.39;24.02;101075.44;4793179;29;20122;-82
2021/04/26 09:40:11;;;;;;;3.00;2.00;;;16.10;39.80;;;17.98;24.64;101066.88;4811125;29;20456;-80
2021/04/26 09:42:57;;;;;;;6.10;2.08;;;16.10;42.00;;;17.94;25.21;101066.03;4823466;29;20137;-80
2021/04/26 09:45:39;;;;;;;4.55;2.47;;;16.10;42.50;;;17.35;24.85;101063.31;4810619;29;20034;-82
2021/04/26 09:48:19;;;;;;;2.75;2.10;;;16.20;41.30;;;18.03;24.42;101060.81;4793802;29;20039;-82
2021/04/26 09:51:21;;;;;;;;;;;;;;;;;;;;;
2021/04/26 09:53:55;;;;;;;4.88;2.25;;;15.70;41.20;;;17.30;23.73;101058.03;4809078;29;20126;-79
2021/04/26 09:56:33;;;;;;;7.10;1.92;;;15.70;40.60;;;17.17;25.08;101056.75;4792583;29;20027;-80
2021/04/26 09:59:08;;;;;;;4.80;2.15;;;15.60;41.80;;;17.92;23.78;101045.84;4792368;29;20376;-80
2021/04/26 10:01:36;;;;;;;2.58;1.98;;;16.00;41.20;;;17.86;23.46;101039.75;4809241;29;20100;-80
2021/04/26 10:04:10;;;;;;;14.60;2.70;;;16.10;39.80;;;18.62;24.09;101036.72;4809306;29;20114;-82
2021/04/26 10:06:51;;;;;;;2.75;1.55;;;16.40;41.40;;;19.21;23.44;101033.03;4792580;29;20079;-82
2021/04/26 10:09:17;;;;;;;3.30;2.00;;;16.80;40.60;;;19.28;22.16;101035.03;4800157;29;20039;-78
2021/04/26 10:11:43;;;;;;;4.22;1.75;;;17.20;38.10;;;19.22;22.85;101036.66;4793275;29;20027;-79
2021/04/26 10:14:15;;;;;;;2.78;1.63;;;17.20;39.30;;;19.08;22.41;101023.34;4793154;29;20490;-81
2021/04/26 10:17:04;;;;;;;3.10;2.05;;;17.10;38.40;;;19.30;23.08;101030.56;4809460;29;20039;-82
2021/04/26 10:19:45;;;;;;;2.65;1.90;;;17.30;40.10;;;19.12;23.94;101014.84;4792089;29;20077;-81
2021/04/26 10:22:12;;;;;;;5.10;2.30;;;17.30;39.70;;;19.43;23.49;101005.47;4791815;29;20045;-81
2021/04/26 10:25:00;;;;;;;3.92;1.85;;;17.40;40.70;;;19.37;22.61;101007.91;4807886;29;20055;-80
2021/04/26 10:27:39;;;;;;;6.95;2.03;;;17.10;39.30;;;19.22;23.48;101002.69;4792112;29;20039;-81
2021/04/26 10:30:17;;;;;;;6.93;2.40;;;17.00;39.80;;;18.91;24.80;101004.38;4790659;29;20050;-80